Terminal Aerodrome Forecast
Issued by NWS Sterling, VA

Current Version | Previous Version | Text Only | Print | Product List | Glossary On
Versions: 1 2 3 4 5 6 7 8 9 10 11 12 13 14
000
FTUS41 KLWX 171100
TAFMRB
TAF
KMRB 171136Z 1712/1812 28007KT P6SM OVC030
     FM171400 28012G20KT P6SM OVC030
     FM171900 29014G24KT P6SM BKN040
     FM172300 29011KT P6SM SCT030 SCT100=

USA.gov is the U.S. government's official web portal to all federal, state and local government web resources and services.